Bindloss, Canada
Current Conditions -  °F | °C
As of 10:00 AM on Tuesday 27 Jan 2015 (Local Time) from CYXH Reporting Station
Overcast Overcast  
Wind Chill: 34°   Ceiling: 24000
Heat Index: 39°   Visibility: 30mi
Dew Point: 32°   Wind: 7mph
Humidity: 75%   Direction: 240°WSW
Pressure: 29.8"   Gusts: NA
Location:  50.88°N, 110.27°W
Report Text: CYXH 271700Z 24006KT 30SM OVC240 04/00 A2980 RMK CI8 SLP109
Loading
Personal Weather Stations






























Interactive Weather Map New forecast layout! Learn more

10-Day Weather Forecast

Advertisements
Track Severe Weather on mobile